createdAt,value
2022-08-16T00:01:28.882Z,99922.27
2022-08-16T00:04:02.124Z,99918.40
2022-08-16T00:06:33.235Z,99917.94
2022-08-16T00:09:01.165Z,99916.72
2022-08-16T00:11:29.236Z,99913.01
2022-08-16T00:13:57.730Z,99913.41
2022-08-16T00:17:05.388Z,99909.64
2022-08-16T00:19:22.669Z,99911.29
2022-08-16T00:21:54.500Z,99914.46
2022-08-16T00:24:31.150Z,99913.03
2022-08-16T00:27:03.353Z,99912.33
2022-08-16T00:29:31.671Z,99916.65
2022-08-16T00:32:05.567Z,99919.48
2022-08-16T00:34:43.922Z,99925.64
2022-08-16T00:37:16.886Z,99926.00
2022-08-16T00:39:47.676Z,99926.70
2022-08-16T00:42:29.550Z,99926.35
2022-08-16T00:45:08.044Z,99926.40
2022-08-16T00:47:42.522Z,99933.34
2022-08-16T00:50:35.980Z,99934.98
2022-08-16T00:53:12.216Z,99942.09
2022-08-16T00:55:44.618Z,99949.06
2022-08-16T00:58:16.235Z,99951.24
2022-08-16T01:00:54.354Z,99951.04
2022-08-16T01:03:30.429Z,99953.08
2022-08-16T01:06:40.296Z,99954.39
2022-08-16T01:08:55.157Z,99949.08
2022-08-16T01:11:27.135Z,99946.48
2022-08-16T01:14:10.486Z,99948.42
2022-08-16T01:16:40.766Z,99952.11
2022-08-16T01:19:25.874Z,99952.65
2022-08-16T01:22:58.860Z,99948.55
2022-08-16T01:24:59.676Z,99941.96
2022-08-16T01:27:44.853Z,99939.75
2022-08-16T01:30:19.435Z,99936.78
2022-08-16T01:33:01.847Z,99939.59
2022-08-16T01:35:41.990Z,99939.00
2022-08-16T01:38:33.431Z,99941.77
2022-08-16T01:41:04.839Z,99939.20
2022-08-16T01:43:34.254Z,99940.55
2022-08-16T01:46:37.732Z,99938.95
2022-08-16T01:48:56.051Z,99940.75
2022-08-16T01:51:27.210Z,99940.58
2022-08-16T01:53:56.151Z,99944.96
2022-08-16T01:56:25.548Z,99944.79
2022-08-16T01:58:55.520Z,99944.09
2022-08-16T02:01:26.246Z,99935.27
2022-08-16T02:03:58.483Z,99931.60
2022-08-16T02:06:34.717Z,99935.55
2022-08-16T02:09:11.925Z,99936.29
2022-08-16T02:11:47.500Z,99933.33
2022-08-16T02:14:18.001Z,99937.83
2022-08-16T02:16:46.487Z,99938.58
2022-08-16T02:19:15.882Z,99940.37
2022-08-16T02:22:09.186Z,99941.18
2022-08-16T02:24:46.078Z,99937.38
2022-08-16T02:27:14.871Z,99940.54
2022-08-16T02:29:43.245Z,99938.16
2022-08-16T02:32:49.000Z,99936.61
2022-08-16T02:35:02.030Z,99933.40
2022-08-16T02:37:39.773Z,99931.60
2022-08-16T02:40:18.898Z,99927.00
2022-08-16T02:42:50.050Z,99932.29
2022-08-16T02:45:24.780Z,99937.11
2022-08-16T02:48:00.978Z,99935.16
2022-08-16T02:50:54.029Z,99934.56
2022-08-16T02:53:32.084Z,99930.20
2022-08-16T02:56:00.638Z,99930.20
2022-08-16T02:58:29.218Z,99933.37
2022-08-16T03:00:58.591Z,99934.42
2022-08-16T03:04:41.434Z,99933.41
2022-08-16T03:06:41.831Z,99933.38
2022-08-16T03:09:10.699Z,99941.17
2022-08-16T03:11:42.323Z,99943.98
2022-08-16T03:14:11.592Z,99947.30
2022-08-16T03:16:42.171Z,99943.95
2022-08-16T03:19:48.134Z,99944.30
2022-08-16T03:22:28.403Z,99946.34
2022-08-16T03:25:02.042Z,99945.84
2022-08-16T03:27:32.530Z,99944.00
2022-08-16T03:30:16.709Z,99940.31
2022-08-16T03:32:47.972Z,99943.14
2022-08-16T03:35:23.801Z,99948.40
2022-08-16T03:38:03.937Z,99949.45
2022-08-16T03:40:35.470Z,99958.68
2022-08-16T03:43:20.538Z,99966.98
2022-08-16T03:45:52.319Z,99971.91
2022-08-16T03:48:36.987Z,99968.79
2022-08-16T03:51:12.182Z,99970.98
2022-08-16T03:53:42.774Z,99974.70
2022-08-16T03:56:19.830Z,99980.70
2022-08-16T03:58:50.819Z,99985.98
2022-08-16T04:01:22.869Z,99986.63
2022-08-16T04:03:52.782Z,99992.77
2022-08-16T04:06:21.941Z,99998.49
2022-08-16T04:08:50.847Z,100005.71
2022-08-16T04:11:18.958Z,100013.61
2022-08-16T04:13:58.848Z,100019.34
2022-08-16T04:16:32.385Z,100020.42
2022-08-16T04:19:04.679Z,100021.61
2022-08-16T04:21:35.572Z,100029.07
2022-08-16T04:24:07.925Z,100033.95
2022-08-16T04:26:36.243Z,100039.77
2022-08-16T04:29:16.659Z,100040.81
2022-08-16T04:31:56.385Z,100045.71
2022-08-16T04:34:28.815Z,100045.46
2022-08-16T04:37:01.251Z,100045.16
2022-08-16T04:39:45.912Z,100045.77
2022-08-16T04:42:17.752Z,100047.99
2022-08-16T04:44:53.938Z,100047.33
2022-08-16T04:47:33.104Z,100054.48
2022-08-16T04:50:20.000Z,100061.61
2022-08-16T04:52:49.707Z,100058.29
2022-08-16T04:55:21.506Z,100060.05
2022-08-16T04:58:00.006Z,100055.36
2022-08-16T05:00:34.334Z,100062.42
2022-08-16T05:03:08.395Z,100065.45
2022-08-16T05:05:55.415Z,100064.49
2022-08-16T05:08:30.714Z,100065.96
2022-08-16T05:11:03.534Z,100069.34
2022-08-16T05:13:41.112Z,100069.33
2022-08-16T05:16:20.082Z,100068.46
2022-08-16T05:18:51.105Z,100068.98
2022-08-16T05:21:20.768Z,100069.77
2022-08-16T05:23:55.860Z,100071.80
2022-08-16T05:26:28.873Z,100065.94
2022-08-16T05:28:58.578Z,100067.80
2022-08-16T05:31:29.988Z,100069.41
2022-08-16T05:34:04.521Z,100068.95
2022-08-16T05:36:34.358Z,100069.94
2022-08-16T05:39:09.416Z,100073.01
2022-08-16T05:41:44.551Z,100073.97
2022-08-16T05:44:23.160Z,100076.44
2022-08-16T05:47:00.196Z,100077.49
2022-08-16T05:49:38.657Z,100078.52
2022-08-16T05:52:11.693Z,100076.09
2022-08-16T05:54:47.329Z,100070.44
2022-08-16T05:57:20.543Z,100073.77
2022-08-16T05:59:50.674Z,100078.58
2022-08-16T06:02:33.417Z,100080.52
2022-08-16T06:05:02.360Z,100086.05
2022-08-16T06:07:32.336Z,100084.05
2022-08-16T06:10:01.540Z,100086.45
2022-08-16T06:12:31.010Z,100087.77
2022-08-16T06:15:07.683Z,100090.28
2022-08-16T06:17:42.421Z,100092.95
2022-08-16T06:20:23.553Z,100095.11
2022-08-16T06:22:58.901Z,100096.92
2022-08-16T06:25:36.643Z,100094.09
2022-08-16T06:28:10.327Z,100095.65
2022-08-16T06:30:45.809Z,100098.80
2022-08-16T06:33:19.808Z,100100.11
2022-08-16T06:35:54.901Z,100102.64
2022-08-16T06:38:33.696Z,100104.76
2022-08-16T06:41:05.503Z,100108.29
2022-08-16T06:43:34.421Z,100114.05
2022-08-16T06:46:09.906Z,100118.26
2022-08-16T06:48:42.807Z,100119.05
2022-08-16T06:51:11.071Z,100119.14
2022-08-16T06:53:38.708Z,100118.73
2022-08-16T06:56:14.176Z,100117.20
2022-08-16T06:58:48.218Z,100122.02
2022-08-16T07:01:21.412Z,100118.42
2022-08-16T07:03:55.457Z,100124.25
2022-08-16T07:06:26.606Z,100121.77
2022-08-16T07:08:54.977Z,100120.75
2022-08-16T07:11:45.786Z,100121.41
2022-08-16T07:14:26.405Z,100125.96
2022-08-16T07:16:57.811Z,100129.21
2022-08-16T07:20:02.547Z,100130.05
2022-08-16T07:22:37.605Z,100129.10
2022-08-16T07:25:12.413Z,100132.73
2022-08-16T07:27:41.560Z,100133.08
2022-08-16T07:30:45.247Z,100135.10
2022-08-16T07:33:02.482Z,100135.95
2022-08-16T07:35:30.486Z,100140.11
2022-08-16T07:37:59.037Z,100134.41
2022-08-16T07:40:56.276Z,100136.98
2022-08-16T07:43:14.832Z,100130.34
2022-08-16T07:45:43.251Z,100124.98
2022-08-16T07:48:14.132Z,100124.62
2022-08-16T07:50:55.673Z,100126.63
2022-08-16T07:53:31.269Z,100125.86
2022-08-16T07:56:04.308Z,100132.13
2022-08-16T07:58:36.148Z,100131.46
2022-08-16T08:01:10.551Z,100130.39
2022-08-16T08:03:48.318Z,100133.60
2022-08-16T08:06:28.702Z,100136.61
2022-08-16T08:08:59.348Z,100136.44
2022-08-16T08:11:29.602Z,100139.54
2022-08-16T08:14:03.139Z,100140.39
2022-08-16T08:16:33.258Z,100142.20
2022-08-16T08:19:02.406Z,100146.67
2022-08-16T08:21:56.663Z,100150.39
2022-08-16T08:24:32.059Z,100151.36
2022-08-16T08:27:02.092Z,100156.07
2022-08-16T08:29:37.390Z,100159.11
2022-08-16T08:32:57.047Z,100158.25
2022-08-16T08:35:03.007Z,100156.80
2022-08-16T08:37:54.483Z,100156.09
2022-08-16T08:40:26.767Z,100163.08
2022-08-16T08:43:11.863Z,100168.92
2022-08-16T08:45:52.836Z,100175.80
2022-08-16T08:48:33.681Z,100170.84
2022-08-16T08:51:09.179Z,100178.54
2022-08-16T08:53:38.243Z,100182.92
2022-08-16T08:56:23.641Z,100182.54
2022-08-16T08:58:58.262Z,100178.47
2022-08-16T09:01:36.817Z,100184.02
2022-08-16T09:04:14.389Z,100188.56
2022-08-16T09:06:44.348Z,100188.98
2022-08-16T09:09:17.035Z,100187.34
2022-08-16T09:11:53.524Z,100187.80
2022-08-16T09:14:26.243Z,100193.98
2022-08-16T09:17:03.466Z,100196.91
2022-08-16T09:19:42.224Z,100197.42
2022-08-16T09:22:20.134Z,100201.24
2022-08-16T09:24:52.859Z,100205.10
2022-08-16T09:27:23.351Z,100203.54
2022-08-16T09:30:00.102Z,100201.15
2022-08-16T09:32:31.177Z,100202.92
2022-08-16T09:35:01.590Z,100201.77
2022-08-16T09:37:36.898Z,100201.49
2022-08-16T09:40:32.082Z,100205.90
2022-08-16T09:42:59.445Z,100197.19
2022-08-16T09:45:29.068Z,100204.66
2022-08-16T09:47:58.499Z,100192.85
2022-08-16T09:50:37.211Z,100196.14
2022-08-16T09:53:16.656Z,100200.23
2022-08-16T09:55:49.347Z,100196.96
2022-08-16T09:58:41.564Z,100192.11
2022-08-16T10:01:08.494Z,100189.84
2022-08-16T10:03:36.490Z,100191.70
2022-08-16T10:06:04.918Z,100191.87
2022-08-16T10:08:33.253Z,100193.44
2022-08-16T10:11:50.276Z,100194.56
2022-08-16T10:14:19.895Z,100196.83
2022-08-16T10:16:59.564Z,100198.55
2022-08-16T10:19:31.962Z,100196.58
2022-08-16T10:22:05.077Z,100198.44
2022-08-16T10:24:33.903Z,100196.77
2022-08-16T10:27:26.036Z,100199.58
2022-08-16T10:30:00.432Z,100199.52
2022-08-16T10:32:31.999Z,100198.42
2022-08-16T10:35:00.368Z,100198.36
2022-08-16T10:37:35.805Z,100195.68
2022-08-16T10:40:28.977Z,100195.55
2022-08-16T10:42:57.069Z,100194.77
2022-08-16T10:45:25.581Z,100192.21
2022-08-16T10:48:00.831Z,100198.13
2022-08-16T10:50:32.717Z,100193.94
2022-08-16T10:53:07.347Z,100194.02
2022-08-16T10:55:40.888Z,100194.70
2022-08-16T10:58:17.066Z,100190.02
2022-08-16T11:00:46.971Z,100192.39
2022-08-16T11:06:07.525Z,100196.58
2022-08-16T11:08:41.952Z,100194.45
2022-08-16T11:11:19.845Z,100195.37
2022-08-16T11:14:11.075Z,100195.16
2022-08-16T11:19:25.669Z,100196.86
2022-08-16T11:22:38.862Z,100196.11
2022-08-16T11:24:44.949Z,100195.23
2022-08-16T11:27:22.939Z,100192.77
2022-08-16T11:29:56.029Z,100197.55
2022-08-16T11:32:31.908Z,100191.95
2022-08-16T11:35:14.369Z,100195.37
2022-08-16T11:38:46.512Z,100194.78
2022-08-16T11:40:52.759Z,100190.52
2022-08-16T11:43:28.027Z,100185.42
2022-08-16T11:45:57.805Z,100183.34
2022-08-16T11:48:31.102Z,100184.77
2022-08-16T11:50:59.634Z,100180.34
2022-08-16T11:53:29.450Z,100175.64
2022-08-16T11:56:04.504Z,100176.51
2022-08-16T11:58:34.278Z,100173.89
2022-08-16T12:01:02.048Z,100171.91
2022-08-16T12:03:35.141Z,100169.50
2022-08-16T12:06:25.293Z,100167.34
2022-08-16T12:09:00.937Z,100166.13
2022-08-16T12:11:32.039Z,100166.88
2022-08-16T12:14:07.671Z,100167.33
2022-08-16T12:16:37.082Z,100165.70
2022-08-16T12:19:10.700Z,100160.76
2022-08-16T12:21:58.312Z,100157.23
2022-08-16T12:24:28.314Z,100156.89
2022-08-16T12:26:56.928Z,100154.83
2022-08-16T12:29:25.794Z,100157.30
2022-08-16T12:32:26.561Z,100153.05
2022-08-16T12:34:50.829Z,100153.27
2022-08-16T12:37:24.298Z,100156.67
2022-08-16T12:39:56.151Z,100151.19
2022-08-16T12:42:34.700Z,100150.42
2022-08-16T12:45:11.066Z,100152.70
2022-08-16T12:48:16.054Z,100150.20
2022-08-16T12:50:49.444Z,100145.83
2022-08-16T12:53:20.825Z,100143.95
2022-08-16T12:55:49.588Z,100139.49
2022-08-16T12:58:47.193Z,100137.31
2022-08-16T13:01:09.438Z,100134.72
2022-08-16T13:03:41.055Z,100136.55
2022-08-16T13:06:09.044Z,100137.59
2022-08-16T13:08:36.872Z,100136.87
2022-08-16T13:11:07.777Z,100135.70
2022-08-16T13:13:36.255Z,100134.56
2022-08-16T13:16:15.274Z,100128.59
2022-08-16T13:18:52.367Z,100132.02
2022-08-16T13:21:23.822Z,100130.16
2022-08-16T13:23:55.159Z,100131.36
2022-08-16T13:26:26.318Z,100124.52
2022-08-16T13:28:55.307Z,100124.95
2022-08-16T13:31:24.120Z,100121.73
2022-08-16T13:33:55.729Z,100122.30
2022-08-16T13:36:47.890Z,100124.00
2022-08-16T13:39:15.514Z,100120.52
2022-08-16T13:41:44.455Z,100120.85
2022-08-16T13:44:22.147Z,100121.98
2022-08-16T13:47:04.319Z,100121.45
2022-08-16T13:49:34.599Z,100124.41
2022-08-16T13:52:03.934Z,100122.05
2022-08-16T13:54:34.633Z,100123.40
2022-08-16T13:57:03.313Z,100119.91
2022-08-16T13:59:31.117Z,100116.87
2022-08-16T14:02:05.689Z,100117.65
2022-08-16T14:04:36.546Z,100115.04
2022-08-16T14:07:08.952Z,100116.79
2022-08-16T14:09:37.814Z,100111.66
2022-08-16T14:12:17.871Z,100113.95
2022-08-16T14:14:46.915Z,100113.52
2022-08-16T14:17:15.067Z,100107.58
2022-08-16T14:19:46.028Z,100104.91
2022-08-16T14:22:30.417Z,100106.38
2022-08-16T14:25:00.429Z,100110.86
2022-08-16T14:27:29.850Z,100113.71
2022-08-16T14:29:59.185Z,100118.43
2022-08-16T14:32:33.099Z,100121.41
2022-08-16T14:35:07.396Z,100119.73
2022-08-16T14:37:36.171Z,100117.04
2022-08-16T14:40:10.612Z,100117.80
2022-08-16T14:42:41.185Z,100121.09
2022-08-16T14:45:15.990Z,100118.10
2022-08-16T14:47:45.220Z,100115.60
2022-08-16T14:50:17.361Z,100118.08
2022-08-16T14:52:59.118Z,100114.70
2022-08-16T14:55:29.148Z,100113.41
2022-08-16T14:57:58.117Z,100110.43
2022-08-16T15:00:34.568Z,100105.64
2022-08-16T15:03:09.570Z,100114.14
2022-08-16T15:05:40.895Z,100112.08
2022-08-16T15:08:10.110Z,100112.77
2022-08-16T15:10:42.854Z,100114.37
2022-08-16T15:13:14.890Z,100110.14
2022-08-16T15:15:43.624Z,100108.77
2022-08-16T15:18:13.972Z,100109.86
2022-08-16T15:20:53.144Z,100110.73
2022-08-16T15:23:20.890Z,100114.86
2022-08-16T15:26:02.573Z,100108.48
2022-08-16T15:28:33.385Z,100109.93
2022-08-16T15:31:03.069Z,100113.63
2022-08-16T15:33:39.401Z,100113.52
2022-08-16T15:36:18.322Z,100116.58
2022-08-16T15:39:03.786Z,100117.23
2022-08-16T15:41:42.980Z,100117.67
2022-08-16T15:44:22.418Z,100115.55
2022-08-16T15:47:02.665Z,100117.91
2022-08-16T15:49:37.934Z,100119.81
2022-08-16T15:52:29.779Z,100125.37
2022-08-16T15:55:12.792Z,100121.70
2022-08-16T15:57:43.402Z,100131.34
2022-08-16T16:00:14.903Z,100132.56
2022-08-16T16:03:01.980Z,100131.81
2022-08-16T16:05:29.833Z,100134.69
2022-08-16T16:08:11.059Z,100134.69
2022-08-16T16:10:43.390Z,100134.16
2022-08-16T16:13:12.291Z,100131.36
2022-08-16T16:15:43.830Z,100132.95
2022-08-16T16:18:12.754Z,100131.48
2022-08-16T16:20:56.060Z,100135.39
2022-08-16T16:23:28.177Z,100136.83
2022-08-16T16:25:58.125Z,100137.16
2022-08-16T16:28:46.049Z,100129.22
2022-08-16T16:31:18.609Z,100136.90
2022-08-16T16:33:50.453Z,100138.02
2022-08-16T16:36:24.254Z,100137.59
2022-08-16T16:38:54.681Z,100137.91
2022-08-16T16:41:26.568Z,100137.16
2022-08-16T16:43:56.006Z,100135.23
2022-08-16T16:46:42.056Z,100136.98
2022-08-16T16:49:14.147Z,100138.15
2022-08-16T16:51:44.355Z,100138.47
2022-08-16T16:54:13.634Z,100138.40
2022-08-16T16:56:58.153Z,100140.24
2022-08-16T16:59:28.125Z,100138.91
2022-08-16T17:02:41.232Z,100142.71
2022-08-16T17:04:48.373Z,100146.96
2022-08-16T17:07:16.719Z,100147.30
2022-08-16T17:09:46.898Z,100146.29
2022-08-16T17:12:25.313Z,100146.17
2022-08-16T17:15:05.274Z,100152.84
2022-08-16T17:17:59.264Z,100154.99
2022-08-16T17:20:22.801Z,100152.55
2022-08-16T17:22:54.767Z,100151.98
2022-08-16T17:25:25.073Z,100153.54
2022-08-16T17:27:52.866Z,100155.33
2022-08-16T17:30:29.307Z,100153.52
2022-08-16T17:33:02.970Z,100154.73
2022-08-16T17:35:43.677Z,100152.52
2022-08-16T17:38:12.106Z,100158.59
2022-08-16T17:41:00.003Z,100157.45
2022-08-16T17:43:35.070Z,100154.04
2022-08-16T17:46:06.183Z,100156.65
2022-08-16T17:48:54.689Z,100158.48
2022-08-16T17:51:27.641Z,100163.50
2022-08-16T17:53:56.779Z,100166.04
2022-08-16T17:56:24.432Z,100167.48
2022-08-16T17:58:52.321Z,100168.86
2022-08-16T18:01:25.613Z,100166.80
2022-08-16T18:04:06.962Z,100170.38
2022-08-16T18:06:39.722Z,100174.94
2022-08-16T18:09:08.458Z,100175.80
2022-08-16T18:11:42.909Z,100182.71
2022-08-16T18:14:13.266Z,100182.04
2022-08-16T18:16:41.586Z,100187.02
2022-08-16T18:19:10.705Z,100188.02
2022-08-16T18:21:57.225Z,100192.89
2022-08-16T18:24:28.997Z,100197.89
2022-08-16T18:26:56.698Z,100199.02
2022-08-16T18:29:46.042Z,100202.29
2022-08-16T18:32:17.422Z,100202.66
2022-08-16T18:34:51.647Z,100202.96
2022-08-16T18:37:19.575Z,100203.63
2022-08-16T18:39:47.307Z,100204.20
2022-08-16T18:42:15.734Z,100205.86
2022-08-16T18:44:44.569Z,100207.09
2022-08-16T18:47:12.281Z,100206.59
2022-08-16T18:49:40.162Z,100211.39
2022-08-16T18:52:08.441Z,100206.70
2022-08-16T18:55:02.942Z,100208.80
2022-08-16T18:57:26.659Z,100208.59
2022-08-16T18:59:54.381Z,100211.10
2022-08-16T19:02:57.071Z,100212.95
2022-08-16T19:05:25.808Z,100213.39
2022-08-16T19:07:53.524Z,100213.59
2022-08-16T19:10:21.457Z,100211.81
2022-08-16T19:12:49.437Z,100213.23
2022-08-16T19:15:21.816Z,100217.31
2022-08-16T19:17:49.495Z,100213.86
2022-08-16T19:20:20.635Z,100216.77
2022-08-16T19:23:05.012Z,100213.45
2022-08-16T19:25:46.732Z,100217.45
2022-08-16T19:28:50.548Z,100222.96
2022-08-16T19:31:20.645Z,100226.56
2022-08-16T19:33:54.119Z,100229.34
2022-08-16T19:36:35.155Z,100231.27
2022-08-16T19:39:08.674Z,100235.63
2022-08-16T19:41:40.139Z,100236.94
2022-08-16T19:44:09.318Z,100237.89
2022-08-16T19:46:38.209Z,100240.23
2022-08-16T19:49:06.198Z,100243.02
2022-08-16T19:51:34.165Z,100241.44
2022-08-16T19:54:01.998Z,100245.81
2022-08-16T19:56:29.830Z,100250.26
2022-08-16T20:01:46.413Z,100253.09
2022-08-16T20:04:14.267Z,100254.96
2022-08-16T20:06:42.773Z,100254.23
2022-08-16T20:09:15.035Z,100254.08
2022-08-16T20:11:45.189Z,100251.41
2022-08-16T20:14:19.312Z,100252.29
2022-08-16T20:16:58.242Z,100253.52
2022-08-16T20:19:28.053Z,100256.45
2022-08-16T20:22:01.012Z,100251.64
2022-08-16T20:24:34.720Z,100252.27
2022-08-16T20:27:07.743Z,100256.15
2022-08-16T20:29:37.792Z,100258.48
2022-08-16T20:32:07.398Z,100264.38
2022-08-16T20:34:35.685Z,100266.79
2022-08-16T20:37:05.228Z,100262.75
2022-08-16T20:39:33.200Z,100263.33
2022-08-16T20:42:01.268Z,100263.45
2022-08-16T20:44:29.106Z,100265.48
2022-08-16T20:46:56.907Z,100265.84
2022-08-16T20:49:24.600Z,100267.64
2022-08-16T20:51:57.239Z,100273.40
2022-08-16T20:54:29.155Z,100270.11
2022-08-16T20:56:57.086Z,100269.50
2022-08-16T20:59:24.815Z,100271.56
2022-08-16T21:01:52.607Z,100272.75
2022-08-16T21:04:22.658Z,100273.71
2022-08-16T21:06:53.829Z,100277.08
2022-08-16T21:09:24.855Z,100274.92
2022-08-16T21:11:55.043Z,100271.83
2022-08-16T21:14:23.696Z,100270.84
2022-08-16T21:16:51.448Z,100275.10
2022-08-16T21:19:21.317Z,100272.99
2022-08-16T21:21:49.549Z,100268.69
2022-08-16T21:24:17.378Z,100272.23
2022-08-16T21:26:53.911Z,100278.55
2022-08-16T21:29:39.553Z,100287.98
2022-08-16T21:32:15.288Z,100281.96
2022-08-16T21:34:43.112Z,100287.52
2022-08-16T21:37:12.186Z,100286.42
2022-08-16T21:39:44.008Z,100282.80
2022-08-16T21:42:16.714Z,100285.64
2022-08-16T21:44:45.541Z,100289.92
2022-08-16T21:47:13.479Z,100290.09
2022-08-16T21:49:41.334Z,100291.29
2022-08-16T21:52:09.937Z,100290.05
2022-08-16T21:54:56.120Z,100286.15
2022-08-16T21:57:24.609Z,100288.48
2022-08-16T21:59:54.367Z,100285.24
2022-08-16T22:02:24.648Z,100290.34
2022-08-16T22:04:52.351Z,100290.20
2022-08-16T22:07:20.437Z,100290.85
2022-08-16T22:09:50.287Z,100291.63
2022-08-16T22:12:24.149Z,100293.05
2022-08-16T22:14:52.816Z,100294.90
2022-08-16T22:17:20.626Z,100293.84
2022-08-16T22:19:48.791Z,100292.27
2022-08-16T22:22:16.538Z,100295.43
2022-08-16T22:24:44.318Z,100298.33
2022-08-16T22:27:12.025Z,100299.27
2022-08-16T22:29:42.374Z,100304.61
2022-08-16T22:32:10.321Z,100306.18
2022-08-16T22:34:38.053Z,100307.14
2022-08-16T22:37:05.808Z,100307.32
2022-08-16T22:39:33.680Z,100312.34
2022-08-16T22:42:08.265Z,100308.29
2022-08-16T22:44:37.264Z,100311.38
2022-08-16T22:47:05.222Z,100312.84
2022-08-16T22:49:33.386Z,100314.95
2022-08-16T22:52:07.336Z,100309.65
2022-08-16T22:54:47.458Z,100307.97
2022-08-16T22:57:16.916Z,100304.13
2022-08-16T22:59:45.243Z,100306.38
2022-08-16T23:02:13.201Z,100311.34
2022-08-16T23:04:40.915Z,100309.05
2022-08-16T23:07:08.695Z,100309.46
2022-08-16T23:09:36.761Z,100310.97
2022-08-16T23:12:07.432Z,100305.73
2022-08-16T23:14:35.196Z,100303.70
2022-08-16T23:17:03.377Z,100303.20
2022-08-16T23:19:31.128Z,100301.46
2022-08-16T23:21:58.839Z,100298.88
2022-08-16T23:24:27.598Z,100295.63
2022-08-16T23:26:55.473Z,100295.86
2022-08-16T23:29:26.323Z,100296.59
2022-08-16T23:32:08.630Z,100298.20
2022-08-16T23:34:36.829Z,100300.19
2022-08-16T23:37:06.683Z,100300.23
2022-08-16T23:39:36.000Z,100300.61
2022-08-16T23:42:13.094Z,100298.16
2022-08-16T23:44:54.945Z,100295.30
2022-08-16T23:47:25.400Z,100298.20
2022-08-16T23:50:00.972Z,100300.21
2022-08-16T23:52:40.610Z,100299.06
2022-08-16T23:55:19.417Z,100299.29
2022-08-16T23:57:47.545Z,100297.55
